Time;durP1;ratioP1;P1;durP2;ratioP2;P2;SDS_P1;SDS_P2;PMS_P1;PMS_P2;Temp;Humidity;BMP_temperature;BMP_pressure;BME280_temperature;BME280_humidity;BME280_pressure;Samples;Min_cycle;Max_cycle;Signal;HPM_P1;HPM_P2
2023/02/12 00:01:43;;;;;;;39.80;20.62;;;;;;;1.45;75.99;100431.10;1689961;85;21223;-82
2023/02/12 00:04:51;;;;;;;35.55;19.55;;;;;;;1.38;75.67;100420.91;1690775;85;21185;-81
2023/02/12 00:07:59;;;;;;;36.10;18.73;;;;;;;1.17;76.22;100415.27;1674885;84;21188;-82
2023/02/12 00:11:05;;;;;;;39.67;19.02;;;;;;;1.28;75.91;100417.55;1663705;83;21715;-81
2023/02/12 00:14:10;;;;;;;32.67;17.85;;;;;;;1.30;75.60;100405.80;1714411;83;21171;-82
2023/02/12 00:17:16;;;;;;;36.05;18.37;;;;;;;1.29;75.33;100398.20;1700814;84;21278;-81
2023/02/12 00:20:22;;;;;;;36.90;18.50;;;;;;;1.25;75.22;100399.41;1701863;84;21225;-82
2023/02/12 00:23:29;;;;;;;31.30;16.23;;;;;;;1.21;75.16;100398.77;1700934;84;21197;-81
2023/02/12 00:26:35;;;;;;;32.20;17.42;;;;;;;1.45;74.38;100396.05;1700757;84;21241;-81
2023/02/12 00:29:41;;;;;;;31.20;17.30;;;;;;;1.11;74.77;100389.65;1713801;83;21167;-82
2023/02/12 00:32:48;;;;;;;30.50;16.52;;;;;;;1.15;75.06;100378.16;1702096;84;21221;-81
2023/02/12 00:36:03;;;;;;;31.10;18.17;;;;;;;1.30;74.60;100364.88;1700663;84;21261;-81
2023/02/12 00:39:10;;;;;;;30.50;18.05;;;;;;;1.57;74.00;100363.77;1714291;83;21206;-82
2023/02/12 00:42:16;;;;;;;33.20;18.27;;;;;;;1.38;74.22;100353.53;1700686;84;21754;-82
2023/02/12 00:45:21;;;;;;;35.95;19.02;;;;;;;1.23;74.85;100351.02;1701864;84;21285;-81
2023/02/12 00:48:28;;;;;;;39.18;21.02;;;;;;;1.20;75.45;100341.81;1712812;83;21173;-81
2023/02/12 00:51:33;;;;;;;45.63;22.27;;;;;;;1.16;75.40;100341.66;1701593;84;21247;-81
2023/02/12 00:54:40;;;;;;;41.65;23.40;;;;;;;1.33;75.39;100335.50;1702142;84;21205;-81
2023/02/12 00:57:46;;;;;;;38.38;21.17;;;;;;;1.31;75.47;100336.09;1701803;84;21158;-82
2023/02/12 01:00:52;;;;;;;38.40;20.60;;;;;;;1.33;75.69;100331.47;1701703;84;21209;-81
2023/02/12 01:03:59;;;;;;;45.05;21.95;;;;;;;1.27;75.90;100324.22;1677024;84;21186;-81
2023/02/12 01:07:05;;;;;;;39.98;22.17;;;;;;;1.35;75.96;100310.14;1701161;84;21217;-81
2023/02/12 01:10:14;;;;;;;43.20;21.52;;;;;;;1.19;76.40;100305.07;1700894;84;21229;-83
2023/02/12 01:13:21;;;;;;;44.08;21.70;;;;;;;1.28;76.38;100297.64;1710483;82;21264;-81
2023/02/12 01:16:30;;;;;;;51.35;24.57;;;;;;;1.19;77.01;100291.60;1749811;82;21224;-82
2023/02/12 01:19:36;;;;;;;32.05;16.42;;;;;;;1.25;76.95;100296.52;1750057;82;21168;-82
2023/02/12 01:22:41;;;;;;;38.92;21.57;;;;;;;1.14;77.41;100287.05;1749729;82;21157;-81
2023/02/12 01:25:49;;;;;;;38.80;22.17;;;;;;;1.09;77.45;100286.55;1749657;82;21283;-82
2023/02/12 01:29:00;;;;;;;46.88;24.37;;;;;;;1.27;77.26;100284.25;1749743;82;21271;-82
2023/02/12 01:32:05;;;;;;;48.65;24.98;;;;;;;1.07;77.68;100270.11;1749867;82;21196;-82
2023/02/12 01:35:11;;;;;;;44.58;22.55;;;;;;;0.96;78.02;100272.28;1749746;82;21196;-82
2023/02/12 01:38:17;;;;;;;41.25;21.23;;;;;;;1.08;78.08;100275.38;1749779;82;21609;-83
2023/02/12 01:41:28;;;;;;;43.63;22.52;;;;;;;1.04;77.89;100276.61;1749837;82;21184;-83
2023/02/12 01:44:39;;;;;;;37.35;20.77;;;;;;;1.02;77.91;100273.16;1749547;82;21169;-82
2023/02/12 01:47:44;;;;;;;43.28;21.82;;;;;;;1.04;77.69;100285.19;1749859;82;21168;-81
2023/02/12 01:50:50;;;;;;;35.65;20.12;;;;;;;1.00;77.56;100272.42;1749696;82;21749;-82
2023/02/12 01:53:59;;;;;;;38.13;21.60;;;;;;;1.13;77.12;100274.56;1749366;82;21730;-81
2023/02/12 01:57:07;;;;;;;42.88;22.05;;;;;;;1.00;77.22;100263.85;1734116;82;21326;-83
2023/02/12 02:00:18;;;;;;;39.78;22.60;;;;;;;0.90;77.50;100271.41;1733310;82;21168;-83
2023/02/12 02:03:24;;;;;;;41.35;23.35;;;;;;;0.89;77.05;100284.48;1749784;82;21164;-81
2023/02/12 02:06:34;;;;;;;39.75;22.32;;;;;;;1.12;76.35;100279.55;1749650;82;21758;-82
2023/02/12 02:09:42;;;;;;;43.33;23.67;;;;;;;1.14;75.89;100267.34;1749389;82;21173;-83
2023/02/12 02:16:23;;;;;;;40.88;21.33;;;;;;;0.91;75.82;100269.08;1744557;82;21525;-82
2023/02/12 02:20:10;;;;;;;43.68;22.62;;;;;;;0.96;75.35;100281.70;1742863;82;21215;-82
2023/02/12 02:24:05;;;;;;;33.83;20.62;;;;;;;1.10;74.50;100276.62;1744394;82;21173;-81
2023/02/12 02:27:22;;;;;;;35.63;21.45;;;;;;;1.02;74.42;100278.55;1744118;82;21203;-81
2023/02/12 02:31:01;;;;;;;45.08;21.12;;;;;;;1.15;73.77;100275.30;1744314;82;21157;-83
2023/02/12 02:34:15;;;;;;;31.80;16.17;;;;;;;0.98;73.76;100259.55;1744705;82;21193;-82
2023/02/12 02:37:49;;;;;;;32.80;19.75;;;;;;;0.92;73.86;100260.02;1744502;82;21200;-82
2023/02/12 02:41:21;;;;;;;32.70;18.17;;;;;;;1.10;73.31;100272.09;1744388;82;21200;-81
2023/02/12 02:44:44;;;;;;;35.95;19.23;;;;;;;0.99;73.25;100266.67;1744567;82;21149;-82
2023/02/12 02:48:03;;;;;;;38.42;19.20;;;;;;;0.86;72.92;100257.80;1742501;82;21761;-82
2023/02/12 02:51:16;;;;;;;33.65;18.65;;;;;;;0.74;73.30;100262.25;1744186;82;21201;-82
2023/02/12 02:54:31;;;;;;;32.40;19.15;;;;;;;0.69;73.35;100263.94;1744635;82;21220;-81
2023/02/12 02:57:50;;;;;;;33.58;20.45;;;;;;;0.76;72.68;100254.45;1718160;82;21177;-81
2023/02/12 03:00:59;;;;;;;30.43;17.73;;;;;;;0.75;71.88;100260.81;1744483;82;21785;-82
2023/02/12 03:04:11;;;;;;;28.73;16.70;;;;;;;0.90;71.64;100256.10;1744265;82;21157;-82
2023/02/12 03:07:31;;;;;;;30.40;18.23;;;;;;;0.91;70.76;100247.53;1744368;82;21792;-81
2023/02/12 03:10:43;;;;;;;28.05;17.98;;;;;;;1.11;70.11;100250.05;1744386;82;21180;-82
2023/02/12 03:14:16;;;;;;;34.45;18.65;;;;;;;1.02;69.15;100250.26;1745046;82;21184;-81
2023/02/12 03:17:38;;;;;;;30.27;17.50;;;;;;;0.99;69.32;100245.13;1749836;82;21195;-82
2023/02/12 03:20:54;;;;;;;34.08;18.48;;;;;;;0.97;68.79;100247.06;1749833;82;21199;-82
2023/02/12 03:24:24;;;;;;;31.70;18.35;;;;;;;1.07;68.23;100245.87;1749033;82;21169;-82
2023/02/12 03:27:40;;;;;;;38.75;21.25;;;;;;;0.90;68.71;100237.74;1748867;82;21771;-81
2023/02/12 03:31:19;;;;;;;39.75;19.17;;;;;;;0.76;68.46;100231.56;1748701;82;21188;-82
2023/02/12 03:34:57;;;;;;;37.83;19.98;;;;;;;0.85;68.52;100229.12;1737285;81;21192;-81
2023/02/12 03:38:39;;;;;;;38.08;18.45;;;;;;;0.80;68.44;100224.13;1749317;82;21177;-81
2023/02/12 03:42:11;;;;;;;30.50;17.50;;;;;;;0.89;67.75;100223.88;1748827;82;21225;-82
2023/02/12 03:45:27;;;;;;;38.13;18.52;;;;;;;1.22;66.68;100215.93;1708752;82;21776;-82
2023/02/12 03:48:45;;;;;;;35.92;18.07;;;;;;;0.91;66.86;100220.60;1749387;82;21740;-81
2023/02/12 03:51:52;;;;;;;32.48;18.82;;;;;;;0.70;67.17;100229.31;1747737;82;21188;-82
2023/02/12 03:54:59;;;;;;;35.65;18.70;;;;;;;0.75;67.18;100223.13;1747949;82;21753;-82
2023/02/12 03:58:07;;;;;;;38.23;18.87;;;;;;;1.04;66.39;100227.27;1748936;82;21845;-82
2023/02/12 04:01:12;;;;;;;34.38;17.48;;;;;;;1.09;66.28;100212.46;1749859;82;21228;-81
2023/02/12 04:04:17;;;;;;;32.28;17.57;;;;;;;0.97;66.43;100213.39;1749751;82;21216;-81
2023/02/12 04:07:24;;;;;;;33.40;17.37;;;;;;;1.10;65.68;100207.93;1749812;82;21196;-81
2023/02/12 04:10:38;;;;;;;36.28;18.75;;;;;;;0.84;66.13;100201.34;1748270;82;21219;-82
2023/02/12 04:13:57;;;;;;;32.13;18.95;;;;;;;0.91;65.81;100209.34;1749473;82;21657;-81
2023/02/12 04:17:21;;;;;;;34.65;19.50;;;;;;;0.91;66.74;100202.61;1746869;82;21197;-81
2023/02/12 04:20:38;;;;;;;43.38;20.37;;;;;;;1.13;66.70;100209.91;1748431;82;21205;-82
2023/02/12 04:24:22;;;;;;;36.45;19.15;;;;;;;1.20;67.61;100213.83;1748558;82;21166;-81
2023/02/12 04:27:41;;;;;;;33.48;19.27;;;;;;;1.04;69.09;100207.92;1747800;82;21166;-81
2023/02/12 04:31:05;;;;;;;25.88;14.07;;;;;;;1.12;69.58;100208.16;1748616;82;21182;-81
2023/02/12 04:34:29;;;;;;;35.33;19.92;;;;;;;0.86;71.02;100215.56;1747810;82;21210;-82
2023/02/12 04:37:56;;;;;;;31.90;19.52;;;;;;;0.87;71.82;100213.73;1748207;82;21205;-81
2023/02/12 04:41:02;;;;;;;31.23;18.87;;;;;;;0.58;73.73;100221.31;1748375;82;21743;-82
2023/02/12 04:44:27;;;;;;;32.67;19.20;;;;;;;0.48;74.34;100213.08;1748480;82;21731;-82
2023/02/12 04:47:33;;;;;;;33.60;20.52;;;;;;;0.47;74.90;100207.30;1748364;82;21803;-81
2023/02/12 04:50:46;;;;;;;32.67;19.25;;;;;;;0.51;75.16;100200.22;1748304;82;21747;-81
2023/02/12 04:53:52;;;;;;;32.88;20.40;;;;;;;0.39;75.92;100202.50;1748025;82;21359;-81
2023/02/12 04:56:58;;;;;;;35.03;20.95;;;;;;;0.32;76.54;100205.26;1746850;82;21253;-81
2023/02/12 05:00:05;;;;;;;39.70;21.75;;;;;;;0.25;77.66;100212.08;1747660;82;21722;-81
2023/02/12 05:03:10;;;;;;;35.25;21.25;;;;;;;0.25;77.45;100208.05;1747714;82;21178;-81
2023/02/12 05:06:18;;;;;;;38.67;22.27;;;;;;;0.15;78.14;100211.91;1747626;82;21193;-81
2023/02/12 05:09:26;;;;;;;37.53;21.48;;;;;;;0.23;78.52;100204.10;1748270;82;21173;-82
2023/02/12 05:12:32;;;;;;;36.20;22.00;;;;;;;0.23;78.50;100209.48;1747084;82;21183;-82
2023/02/12 05:15:38;;;;;;;36.98;22.17;;;;;;;0.15;79.54;100213.24;1748403;82;21751;-82
2023/02/12 05:18:37;;;;;;;36.25;20.97;;;;;;;0.23;79.34;100218.90;1755350;82;21718;-81
2023/02/12 05:21:29;;;;;;;36.20;20.72;;;;;;;0.41;79.20;100223.41;1739703;82;21240;-81
2023/02/12 05:24:35;;;;;;;38.28;21.87;;;;;;;0.41;79.05;100228.80;1689240;85;21185;-82
2023/02/12 05:27:41;;;;;;;37.00;22.58;;;;;;;0.63;78.49;100229.41;1715617;82;21220;-81
2023/02/12 05:30:47;;;;;;;35.33;21.37;;;;;;;0.60;78.60;100235.02;1739775;82;21701;-81
2023/02/12 05:33:54;;;;;;;34.55;21.87;;;;;;;0.60;78.79;100237.70;1718964;82;21201;-80
2023/02/12 05:36:59;;;;;;;34.90;21.82;;;;;;;0.57;78.82;100231.72;1739741;82;21177;-82
2023/02/12 05:40:05;;;;;;;39.38;22.32;;;;;;;0.63;78.87;100236.14;1739690;82;21165;-82
2023/02/12 05:43:10;;;;;;;41.23;22.98;;;;;;;0.90;78.51;100225.62;1739773;82;21323;-82
2023/02/12 05:46:16;;;;;;;46.08;22.30;;;;;;;1.05;78.05;100223.09;1739206;82;21797;-82
2023/02/12 05:49:22;;;;;;;37.08;20.85;;;;;;;0.73;79.04;100225.05;1737756;82;21193;-82
2023/02/12 05:52:27;;;;;;;39.48;23.70;;;;;;;1.15;77.76;100227.29;1689216;85;21256;-81
2023/02/12 05:55:32;;;;;;;39.78;24.05;;;;;;;0.84;78.03;100226.06;1708637;84;21189;-82
2023/02/12 05:58:37;;;;;;;38.08;21.65;;;;;;;0.99;77.65;100231.66;1690481;83;21216;-82
2023/02/12 06:01:46;;;;;;;41.02;23.75;;;;;;;1.11;78.03;100232.05;1719345;82;21192;-81
2023/02/12 06:04:52;;;;;;;38.53;22.95;;;;;;;0.83;78.61;100231.09;1719524;82;21157;-81
2023/02/12 06:07:58;;;;;;;34.45;22.17;;;;;;;0.93;78.74;100229.41;1739824;82;21165;-82
2023/02/12 06:11:14;;;;;;;38.45;23.45;;;;;;;1.07;78.94;100234.59;1738196;82;21742;-81
2023/02/12 06:14:24;;;;;;;38.17;22.93;;;;;;;1.04;78.99;100234.86;1738875;82;21216;-81
2023/02/12 06:17:32;;;;;;;37.45;22.50;;;;;;;0.92;79.56;100242.52;1732713;82;21193;-82
2023/02/12 06:20:39;;;;;;;35.00;22.05;;;;;;;1.01;79.71;100247.20;1721338;83;21178;-81
2023/02/12 06:23:44;;;;;;;43.98;24.12;;;;;;;1.20;79.84;100242.12;1721211;83;21201;-82
2023/02/12 06:26:50;;;;;;;39.65;24.55;;;;;;;1.09;80.04;100250.17;1701692;83;21233;-81
2023/02/12 06:29:56;;;;;;;40.30;23.73;;;;;;;1.26;79.99;100244.82;1721034;83;21206;-81
2023/02/12 06:33:02;;;;;;;39.90;23.95;;;;;;;1.53;79.30;100254.81;1721164;83;21208;-81
2023/02/12 06:36:11;;;;;;;37.00;24.75;;;;;;;1.65;78.91;100253.00;1720327;83;21196;-81
2023/02/12 06:39:10;;;;;;;42.05;24.50;;;;;;;1.91;78.23;100256.81;1721292;83;21162;-80
2023/02/12 06:42:04;;;;;;;37.65;23.67;;;;;;;1.48;79.42;100258.84;1721402;83;21193;-81
2023/02/12 06:45:10;;;;;;;33.20;21.12;;;;;;;1.41;79.68;100260.29;1721335;83;21316;-81
2023/02/12 06:48:17;;;;;;;37.95;22.87;;;;;;;1.59;79.71;100251.27;1721378;83;21162;-82
2023/02/12 06:51:25;;;;;;;42.15;24.55;;;;;;;1.85;78.86;100254.61;1702386;83;21202;-81
2023/02/12 06:54:30;;;;;;;39.78;23.12;;;;;;;1.91;78.91;100250.06;1706435;84;21218;-81
2023/02/12 06:57:36;;;;;;;38.33;24.32;;;;;;;2.12;77.98;100255.10;1706532;84;21702;-81
2023/02/12 07:00:42;;;;;;;36.45;22.85;;;;;;;2.13;77.93;100264.91;1721043;83;21735;-81
2023/02/12 07:03:48;;;;;;;39.98;24.98;;;;;;;2.17;77.74;100255.59;1706658;84;21169;-81
2023/02/12 07:06:55;;;;;;;37.42;21.93;;;;;;;2.01;78.06;100262.69;1720445;83;21237;-81
2023/02/12 07:10:01;;;;;;;35.03;22.13;;;;;;;2.35;77.58;100260.45;1706370;84;21178;-82
2023/02/12 07:13:07;;;;;;;35.50;21.45;;;;;;;2.12;77.80;100263.20;1719695;82;21222;-82
2023/02/12 07:16:15;;;;;;;40.55;22.42;;;;;;;1.86;79.30;100259.02;1706306;84;21240;-81
2023/02/12 07:19:21;;;;;;;34.15;21.15;;;;;;;2.08;78.92;100259.03;1714135;83;21209;-82
2023/02/12 07:22:28;;;;;;;39.48;23.45;;;;;;;1.63;80.41;100267.08;1760219;81;21207;-81
2023/02/12 07:25:34;;;;;;;38.45;22.02;;;;;;;2.01;79.82;100268.58;1737462;81;21808;-82
2023/02/12 07:28:40;;;;;;;39.35;22.62;;;;;;;1.99;79.69;100276.80;1760275;81;21152;-81
2023/02/12 07:31:45;;;;;;;39.18;21.37;;;;;;;1.98;79.53;100278.28;1759601;81;21184;-82
2023/02/12 07:34:51;;;;;;;37.10;23.32;;;;;;;2.00;79.82;100274.96;1760199;81;21208;-81
2023/02/12 07:37:57;;;;;;;33.33;22.10;;;;;;;1.94;80.06;100278.16;1759698;81;21199;-82
2023/02/12 07:41:15;;;;;;;37.83;22.02;;;;;;;1.84;80.90;100290.17;1759719;81;21196;-82
2023/02/12 07:44:21;;;;;;;34.78;22.30;;;;;;;1.98;80.81;100279.14;1755306;81;21176;-81
2023/02/12 07:47:27;;;;;;;35.40;22.27;;;;;;;1.90;80.93;100282.93;1760038;81;21208;-81
2023/02/12 07:50:32;;;;;;;35.40;23.55;;;;;;;2.00;81.35;100277.66;1759190;81;22029;-80
2023/02/12 07:53:38;;;;;;;37.03;24.02;;;;;;;2.03;82.13;100278.28;1759597;81;21287;-81
2023/02/12 07:56:45;;;;;;;35.48;22.60;;;;;;;1.99;82.94;100281.34;1759315;81;21224;-81
2023/02/12 07:59:51;;;;;;;36.00;21.57;;;;;;;2.17;83.23;100287.12;1759572;81;21279;-81
2023/02/12 08:02:51;;;;;;;36.28;22.60;;;;;;;2.40;82.93;100294.67;1758449;81;21164;-81
2023/02/12 08:05:58;;;;;;;34.15;21.17;;;;;;;2.44;82.86;100294.30;1718957;81;21234;-81
2023/02/12 08:09:05;;;;;;;36.65;22.93;;;;;;;2.72;82.47;100296.95;1760344;81;21204;-81
2023/02/12 08:12:11;;;;;;;33.75;21.95;;;;;;;2.78;82.45;100295.62;1760041;81;21822;-81
2023/02/12 08:15:18;;;;;;;36.13;21.48;;;;;;;2.92;82.34;100305.28;1760072;81;21243;-81
2023/02/12 08:18:24;;;;;;;30.65;21.17;;;;;;;3.25;81.42;100301.59;1759288;81;21231;-81
2023/02/12 08:21:34;;;;;;;28.95;18.27;;;;;;;3.73;79.39;100312.77;1724898;83;21788;-81
2023/02/12 08:24:41;;;;;;;25.25;17.50;;;;;;;3.56;79.68;100321.45;1709550;84;21750;-81
2023/02/12 08:27:48;;;;;;;26.90;16.27;;;;;;;3.60;79.60;100325.63;1690286;85;21197;-81
2023/02/12 08:30:53;;;;;;;30.50;16.07;;;;;;;3.70;78.82;100331.95;1679273;85;21197;-81
2023/02/12 08:34:00;;;;;;;22.48;14.33;;;;;;;3.45;78.84;100327.80;1689910;85;21200;-81
2023/02/12 08:37:07;;;;;;;23.83;14.40;;;;;;;3.47;77.67;100342.03;1689940;85;21224;-81
2023/02/12 08:40:14;;;;;;;21.48;11.45;;;;;;;3.42;76.67;100349.67;1689878;85;21173;-81
2023/02/12 08:43:19;;;;;;;19.52;10.60;;;;;;;3.61;74.90;100358.94;1690649;85;21189;-81
2023/02/12 08:46:28;;;;;;;11.30;5.97;;;;;;;3.38;73.70;100371.20;1690332;85;21797;-80
2023/02/12 08:49:35;;;;;;;73.90;36.17;;;;;;;3.30;69.15;100389.43;1690688;85;21176;-81
2023/02/12 08:52:42;;;;;;;78.92;38.85;;;;;;;3.42;66.66;100397.49;1690393;85;21184;-81
2023/02/12 08:55:50;;;;;;;19.32;8.93;;;;;;;3.63;63.40;100398.41;1690850;84;21330;-81
2023/02/12 08:58:56;;;;;;;12.80;7.42;;;;;;;3.65;61.92;100396.42;1668865;85;21196;-81
2023/02/12 09:02:07;;;;;;;17.92;7.55;;;;;;;3.55;61.74;100396.83;1690137;85;21201;-81
2023/02/12 09:05:10;;;;;;;42.60;19.17;;;;;;;3.61;62.78;100398.16;1690165;85;21220;-80
2023/02/12 09:08:16;;;;;;;4.92;2.67;;;;;;;3.68;63.78;100409.69;1700124;83;21173;-81
2023/02/12 09:11:29;;;;;;;10.28;4.53;;;;;;;3.42;64.47;100419.13;1660035;86;21264;-81
2023/02/12 09:14:31;;;;;;;11.85;4.33;;;;;;;3.47;63.88;100410.98;1661117;86;21741;-81
2023/02/12 09:17:39;;;;;;;11.60;5.30;;;;;;;3.54;62.44;100420.81;1679712;85;21200;-80
2023/02/12 09:20:49;;;;;;;5.53;2.62;;;;;;;3.31;61.07;100445.22;1696072;83;21169;-79
2023/02/12 09:23:54;;;;;;;7.22;2.33;;;;;;;3.14;59.32;100443.03;1714313;83;21166;-80
2023/02/12 09:26:59;;;;;;;4.42;1.90;;;;;;;3.12;59.95;100432.84;1672181;86;21225;-80
2023/02/12 09:30:05;;;;;;;28.35;9.50;;;;;;;3.20;61.62;100433.55;1714372;83;21166;-80
2023/02/12 09:33:11;;;;;;;17.42;3.85;;;;;;;3.25;58.78;100451.14;1672407;86;21790;-80
2023/02/12 09:36:13;;;;;;;4.75;2.45;;;;;;;3.07;58.40;100458.05;1714310;83;21771;-81
2023/02/12 09:39:18;;;;;;;10.72;5.33;;;;;;;3.18;58.44;100447.20;1672317;86;21787;-79
2023/02/12 09:42:36;;;;;;;47.95;22.60;;;;;;;3.42;56.70;100451.58;1713860;83;21202;-81
2023/02/12 09:45:46;;;;;;;6.12;2.40;;;;;;;3.25;56.51;100475.97;1702148;84;21560;-81
2023/02/12 09:49:08;;;;;;;9.40;3.25;;;;;;;3.26;56.49;100460.10;1714089;83;21162;-81
2023/02/12 09:52:25;;;;;;;2.00;1.30;;;;;;;2.94;58.68;100457.31;1672414;86;22103;-80
2023/02/12 09:55:38;;;;;;;2.47;1.55;;;;;;;3.15;59.15;100460.10;1694136;83;21600;-80
2023/02/12 09:58:48;;;;;;;4.22;2.05;;;;;;;3.16;57.37;100453.24;1713491;83;21770;-81
2023/02/12 10:01:55;;;;;;;4.03;1.70;;;;;;;3.26;56.16;100479.03;1671315;86;21237;-81
2023/02/12 10:05:00;;;;;;;10.00;4.45;;;;;;;2.85;54.57;100475.12;1714077;83;21158;-81
2023/02/12 10:08:23;;;;;;;9.30;2.95;;;;;;;2.80;54.21;100467.37;1672272;86;21189;-80
2023/02/12 10:12:02;;;;;;;10.82;4.00;;;;;;;3.01;54.76;100474.73;1713434;83;21738;-79
2023/02/12 10:15:25;;;;;;;3.17;1.20;;;;;;;3.08;55.02;100460.61;1672482;86;21293;-82
2023/02/12 10:19:00;;;;;;;3.67;1.87;;;;;;;3.24;55.11;100462.05;1713007;83;21324;-82
2023/02/12 10:22:32;;;;;;;19.95;9.85;;;;;;;3.43;53.74;100470.86;1672240;85;21209;-81
2023/02/12 10:26:01;;;;;;;17.37;6.37;;;;;;;3.42;53.63;100482.17;1713126;83;21766;-81
2023/02/12 10:29:09;;;;;;;15.10;7.58;;;;;;;3.59;52.78;100466.77;1650888;86;21174;-81
2023/02/12 10:32:31;;;;;;;5.45;2.83;;;;;;;3.66;52.69;100471.16;1712904;83;21261;-80
2023/02/12 10:35:37;;;;;;;3.75;2.05;;;;;;;3.43;53.43;100486.59;1670890;86;21221;-81
2023/02/12 10:38:44;;;;;;;3.55;1.60;;;;;;;3.48;52.38;100505.14;1714054;83;21210;-81
2023/02/12 10:41:59;;;;;;;6.15;1.98;;;;;;;3.29;53.05;100512.55;1672457;86;21217;-80
2023/02/12 10:45:05;;;;;;;5.50;1.40;;;;;;;3.17;53.12;100510.36;1714463;83;21214;-81
2023/02/12 10:48:14;;;;;;;4.67;1.80;;;;;;;2.99;52.95;100510.49;1671902;86;21451;-81
2023/02/12 10:51:45;;;;;;;;;;;;;;;2.99;51.87;100532.11;1716160;83;21794;-82
2023/02/12 10:54:53;;;;;;;5.25;1.52;;;;;;;2.86;52.43;100527.30;1729921;83;20197;-80
2023/02/12 10:57:59;;;;;;;7.05;1.62;;;;;;;2.95;52.99;100523.88;1728656;83;21221;-81
2023/02/12 11:01:06;;;;;;;3.65;1.22;;;;;;;2.97;53.75;100532.73;1730055;83;21750;-81
2023/02/12 11:04:31;;;;;;;4.22;1.70;;;;;;;2.86;52.68;100532.22;1730045;83;21257;-80
2023/02/12 11:07:37;;;;;;;2.12;1.57;;;;;;;2.70;53.02;100532.58;1730442;83;21237;-81
2023/02/12 11:10:47;;;;;;;2.25;1.27;;;;;;;2.63;52.36;100508.86;1693507;83;21754;-82
2023/02/12 11:14:03;;;;;;;;;;;;;;;2.81;52.37;100535.28;1731240;82;21173;-81
2023/02/12 11:17:08;;;;;;;3.52;1.65;;;;;;;2.88;53.20;100554.59;1730170;83;20194;-81
2023/02/12 11:20:30;;;;;;;5.45;1.50;;;;;;;2.62;54.02;100551.70;1730086;83;21185;-81
2023/02/12 11:23:46;;;;;;;3.85;1.47;;;;;;;2.32;52.84;100565.75;1746548;81;21200;-81
2023/02/12 11:26:52;;;;;;;2.30;1.10;;;;;;;2.22;51.59;100601.54;1752569;82;21227;-82
2023/02/12 11:30:26;;;;;;;3.67;1.40;;;;;;;2.08;52.97;100590.92;1751254;82;21784;-81
2023/02/12 11:33:41;;;;;;;3.42;1.62;;;;;;;2.07;51.85;100601.34;1752259;82;21760;-81
2023/02/12 11:36:52;;;;;;;4.92;1.60;;;;;;;2.07;51.20;100606.75;1730093;82;21208;-81
2023/02/12 11:39:58;;;;;;;3.67;1.32;;;;;;;2.05;52.31;100594.70;1731011;82;21204;-81
2023/02/12 11:43:13;;;;;;;3.30;1.25;;;;;;;2.25;51.38;100593.19;1752386;82;21734;-81
2023/02/12 11:46:19;;;;;;;4.60;2.98;;;;;;;2.27;51.45;100614.69;1730201;82;21351;-81
2023/02/12 11:49:37;;;;;;;3.92;1.95;;;;;;;2.02;51.51;100613.83;1711572;82;21227;-81
2023/02/12 11:52:44;;;;;;;25.05;12.45;;;;;;;2.24;49.89;100657.60;1752815;82;21153;-81
2023/02/12 11:55:49;;;;;;;10.72;6.58;;;;;;;2.19;49.32;100618.44;1752692;82;21207;-81
2023/02/12 11:58:56;;;;;;;5.20;2.42;;;;;;;2.37;49.63;100616.20;1731406;82;21765;-82
2023/02/12 12:02:03;;;;;;;6.03;2.52;;;;;;;2.22;48.46;100620.43;1752775;82;21200;-81
2023/02/12 12:05:27;;;;;;;25.82;11.33;;;;;;;2.29;48.86;100632.47;1752385;82;21232;-81
2023/02/12 12:08:43;;;;;;;2.67;1.50;;;;;;;2.59;49.80;100610.89;1752682;82;21145;-82
2023/02/12 12:11:59;;;;;;;21.85;8.70;;;;;;;2.55;49.92;100620.20;1752538;82;21248;-81
2023/02/12 12:22:52;;;;;;;5.75;2.02;;;;;;;2.58;51.13;100618.59;1751005;82;21188;-81
2023/02/12 12:26:08;;;;;;;4.80;1.93;;;;;;;2.49;52.25;100630.98;1750982;82;21260;-81
2023/02/12 12:29:33;;;;;;;4.80;1.77;;;;;;;2.19;53.71;100635.98;1750618;82;21164;-81
2023/02/12 12:32:32;;;;;;;5.97;2.50;;;;;;;2.01;54.62;100624.72;1751092;82;21191;-82
2023/02/12 12:36:20;;;;;;;9.30;4.50;;;;;;;1.66;53.48;100633.58;1750945;82;22115;-81
2023/02/12 12:39:47;;;;;;;11.95;3.98;;;;;;;1.62;51.59;100634.77;1751070;82;21741;-81
2023/02/12 12:43:06;;;;;;;17.05;3.60;;;;;;;1.71;51.90;100624.66;1751065;82;21168;-82
2023/02/12 12:46:40;;;;;;;8.10;3.60;;;;;;;1.65;51.05;100622.91;1750905;82;21204;-81
2023/02/12 12:50:20;;;;;;;10.25;2.92;;;;;;;1.64;51.84;100624.72;1750686;82;21757;-81
2023/02/12 12:53:42;;;;;;;6.65;3.25;;;;;;;1.75;50.13;100636.95;1751282;82;21177;-82
2023/02/12 12:57:04;;;;;;;6.10;2.45;;;;;;;1.75;50.13;100636.95;1751028;82;21773;-81
2023/02/12 13:00:46;;;;;;;4.55;2.08;;;;;;;1.60;50.27;100629.09;1750727;82;21716;-82
2023/02/12 13:04:25;;;;;;;4.78;2.20;;;;;;;1.77;50.70;100641.73;1731570;82;21161;-81
2023/02/12 13:07:59;;;;;;;7.75;2.70;;;;;;;1.74;50.03;100634.34;1742479;82;21251;-82
2023/02/12 13:11:28;;;;;;;6.87;1.80;;;;;;;1.43;50.43;100632.54;1749403;82;21200;-82
2023/02/12 13:14:52;;;;;;;4.47;1.85;;;;;;;1.63;50.49;100646.41;1750811;82;21149;-82
2023/02/12 13:18:18;;;;;;;7.30;2.72;;;;;;;1.82;49.97;100653.54;1751102;82;21741;-81
2023/02/12 13:21:56;;;;;;;7.90;2.08;;;;;;;1.56;51.14;100647.84;1750102;81;21172;-82
2023/02/12 13:25:25;;;;;;;4.60;1.87;;;;;;;1.51;52.55;100641.44;1740509;82;21177;-82
2023/02/12 13:28:44;;;;;;;5.40;2.10;;;;;;;1.21;53.83;100653.41;1676820;85;21166;-81
2023/02/12 13:32:10;;;;;;;4.53;2.22;;;;;;;1.08;54.24;100648.50;1708729;83;21209;-82
2023/02/12 13:35:24;;;;;;;4.97;2.25;;;;;;;1.22;52.82;100665.94;1674784;85;21292;-82
2023/02/12 13:38:41;;;;;;;5.53;2.42;;;;;;;1.22;52.73;100667.28;1685792;85;21809;-82
2023/02/12 13:41:47;;;;;;;4.83;1.80;;;;;;;1.21;52.38;100651.20;1684596;85;21304;-82
2023/02/12 13:45:13;;;;;;;4.67;1.70;;;;;;;1.22;51.89;100675.37;1686217;85;21197;-81
2023/02/12 13:48:32;;;;;;;4.95;2.27;;;;;;;1.26;51.15;100653.94;1686477;85;21217;-82
2023/02/12 13:51:52;;;;;;;4.95;2.42;;;;;;;1.44;50.43;100659.87;1686666;85;21766;-82
2023/02/12 13:55:25;;;;;;;6.78;2.15;;;;;;;0.99;49.59;100686.39;1686501;85;21225;-82
2023/02/12 13:58:44;;;;;;;3.80;2.10;;;;;;;1.20;50.95;100671.90;1682099;85;21177;-82
2023/02/12 14:01:52;;;;;;;3.22;1.82;;;;;;;0.98;52.35;100691.87;1686550;85;21730;-82
2023/02/12 14:05:25;;;;;;;4.17;2.02;;;;;;;0.97;52.71;100696.88;1686766;85;21726;-83
2023/02/12 14:08:41;;;;;;;6.90;2.40;;;;;;;1.15;52.99;100696.96;1686708;85;21185;-82
2023/02/12 14:11:58;;;;;;;10.08;2.40;;;;;;;1.11;53.69;100707.56;1686691;85;21233;-82
2023/02/12 14:15:32;;;;;;;3.80;1.80;;;;;;;1.21;53.95;100701.05;1662218;85;21726;-82
2023/02/12 14:18:42;;;;;;;6.08;1.82;;;;;;;1.02;54.79;100702.33;1675756;85;21228;-82
2023/02/12 14:21:48;;;;;;;3.58;1.85;;;;;;;0.91;53.80;100728.29;1686627;85;21212;-81
2023/02/12 14:24:57;;;;;;;6.53;2.12;;;;;;;0.87;54.44;100714.64;1691298;82;21792;-82
2023/02/12 14:28:05;;;;;;;5.47;2.20;;;;;;;0.73;54.38;100719.13;1719476;83;21724;-82
2023/02/12 14:31:31;;;;;;;6.85;1.85;;;;;;;0.77;53.50;100741.34;1689264;85;21241;-82
2023/02/12 14:34:44;;;;;;;5.25;2.55;;;;;;;0.71;53.67;100739.07;1708467;84;21719;-82
2023/02/12 14:37:50;;;;;;;6.58;2.30;;;;;;;0.62;53.71;100752.66;1689227;85;21228;-81
2023/02/12 14:40:57;;;;;;;2.85;1.67;;;;;;;0.64;53.70;100753.41;1669449;85;21829;-82
2023/02/12 14:44:22;;;;;;;5.72;2.37;;;;;;;0.61;53.89;100761.70;1707327;84;21173;-82
2023/02/12 14:47:43;;;;;;;6.83;3.02;;;;;;;0.64;53.68;100760.13;1654151;86;21770;-82
2023/02/12 14:50:52;;;;;;;10.85;3.20;;;;;;;0.79;53.85;100769.50;1716078;82;21738;-82
2023/02/12 14:53:59;;;;;;;6.08;2.02;;;;;;;0.71;54.67;100774.94;1719662;83;21176;-81
2023/02/12 14:57:06;;;;;;;4.55;2.33;;;;;;;0.55;54.41;100768.81;1719197;83;21245;-82
2023/02/12 15:00:29;;;;;;;6.53;3.10;;;;;;;0.48;54.43;100789.05;1719500;83;21730;-82
2023/02/12 15:03:46;;;;;;;8.38;3.60;;;;;;;0.42;55.03;100785.38;1719466;83;21201;-82
2023/02/12 15:07:00;;;;;;;6.78;2.83;;;;;;;0.46;55.17;100793.16;1719147;83;21750;-83